This is the latest recevied weather packets stored in our database for station/object EA6MW-10. If no packets are shown the sender has not sent any weather packets the latest 10 day(s).
| Time | Temp. | Humidity | Pressure | Rain* | Wind** | Luminosity | Snow |
|---|---|---|---|---|---|---|---|
| 1777299518 | 25° C | 53% | 1018.3 hPa | - | - | - | - |
| 1777298618 | 25° C | 53% | 1018.4 hPa | - | - | - | - |
| 1777297718 | 26.11° C | 51% | 1018.6 hPa | - | - | - | - |
| 1777296817 | 26.67° C | 49% | 1018.7 hPa | - | - | - | - |
| 1777295917 | 25° C | 53% | 1018.7 hPa | - | - | - | - |
| 1777295017 | 25° C | 50% | 1018.7 hPa | - | - | - | - |
| 1777294117 | 27.78° C | 46% | 1018.9 hPa | - | - | - | - |
| 1777293217 | 28.33° C | 45% | 1018.9 hPa | - | - | - | - |
| 1777292317 | 27.78° C | 46% | 1018.9 hPa | - | - | - | - |
| 1777291416 | 28.89° C | 45% | 1019.1 hPa | - | - | - | - |
| 1777290516 | 29.44° C | 44% | 1019 hPa | - | - | - | - |
| 1777289616 | 28.89° C | 44% | 1019.2 hPa | - | - | - | - |
| 1777288716 | 27.22° C | 47% | 1019.3 hPa | - | - | - | - |
| 1777287815 | 28.33° C | 45% | 1019.4 hPa | - | - | - | - |
| 1777286915 | 27.22° C | 47% | 1019.5 hPa | - | - | - | - |
| 1777286015 | 28.89° C | 44% | 1019.5 hPa | - | - | - | - |
| 1777285114 | 28.89° C | 45% | 1019.6 hPa | - | - | - | - |
| 1777284214 | 28.89° C | 44% | 1019.6 hPa | - | - | - | - |
| 1777283314 | 28.89° C | 43% | 1019.7 hPa | - | - | - | - |
| 1777282414 | 29.44° C | 42% | 1019.7 hPa | - | - | - | - |
| 1777281514 | 30° C | 41% | 1019.8 hPa | - | - | - | - |
| 1777280614 | 30.56° C | 40% | 1019.8 hPa | - | - | - | - |
| 1777279713 | 30.56° C | 37% | 1019.7 hPa | - | - | - | - |
| 1777278813 | 32.22° C | 36% | 1019.7 hPa | - | - | - | - |
| 1777277913 | 32.22° C | 34% | 1019.8 hPa | - | - | - | - |
* Rain since midnight (hover to see other rain measurements)
** Current wind speed in m/s (hover to see current wind gust speed)